createdAt,value
2022-09-05T00:03:25.848Z,17.00
2022-09-05T00:07:58.426Z,17.00
2022-09-05T00:11:40.485Z,17.00
2022-09-05T00:15:48.767Z,17.00
2022-09-05T00:24:27.279Z,16.90
2022-09-05T00:25:08.619Z,16.90
2022-09-05T00:30:29.290Z,16.80
2022-09-05T00:33:50.574Z,16.80
2022-09-05T00:37:42.450Z,16.70
2022-09-05T00:41:25.543Z,16.70
2022-09-05T00:45:14.542Z,16.80
2022-09-05T00:49:15.617Z,16.80
2022-09-05T00:53:21.038Z,16.80
2022-09-05T00:57:24.478Z,16.80
2022-09-05T01:01:32.692Z,16.70
2022-09-05T01:05:35.977Z,16.70
2022-09-05T01:09:46.847Z,16.60
2022-09-05T01:14:00.009Z,16.50
2022-09-05T01:17:57.211Z,16.40
2022-09-05T01:21:51.597Z,16.40
2022-09-05T01:25:54.953Z,16.30
2022-09-05T01:30:18.319Z,16.20
2022-09-05T01:34:31.879Z,16.20
2022-09-05T01:38:28.414Z,16.10
2022-09-05T01:42:51.579Z,16.10
2022-09-05T01:46:55.849Z,16.10
2022-09-05T01:50:50.718Z,16.00
2022-09-05T01:54:48.528Z,16.10
2022-09-05T01:59:02.999Z,16.10
2022-09-05T02:03:18.771Z,16.00
2022-09-05T02:07:20.002Z,16.00
2022-09-05T02:11:12.146Z,15.90
2022-09-05T02:15:10.132Z,15.90
2022-09-05T02:19:09.939Z,15.80
2022-09-05T02:23:24.689Z,15.90
2022-09-05T02:28:05.226Z,15.90
2022-09-05T02:32:16.105Z,16.00
2022-09-05T02:36:49.184Z,16.00
2022-09-05T02:45:07.891Z,16.00
2022-09-05T02:45:25.525Z,16.10
2022-09-05T02:52:21.293Z,16.00
2022-09-05T02:57:39.947Z,15.90
2022-09-05T02:58:08.005Z,15.90
2022-09-05T03:02:02.022Z,15.80
2022-09-05T03:06:11.620Z,15.70
2022-09-05T03:10:16.857Z,15.60
2022-09-05T03:14:13.697Z,15.60
2022-09-05T03:18:33.244Z,15.50
2022-09-05T03:22:37.050Z,15.40
2022-09-05T03:26:43.560Z,15.40
2022-09-05T03:30:41.492Z,15.30
2022-09-05T03:34:38.706Z,15.20
2022-09-05T03:38:49.566Z,15.20
2022-09-05T03:43:00.137Z,15.10
2022-09-05T03:46:57.948Z,15.10
2022-09-05T03:55:38.737Z,15.00
2022-09-05T03:57:27.108Z,15.00
2022-09-05T03:59:25.605Z,15.00
2022-09-05T04:08:10.372Z,14.80
2022-09-05T04:08:17.042Z,14.80
2022-09-05T04:11:54.905Z,14.70
2022-09-05T04:15:45.369Z,14.70
2022-09-05T04:19:30.210Z,14.60
2022-09-05T04:23:25.029Z,14.60
2022-09-05T04:27:39.576Z,14.50
2022-09-05T04:31:44.598Z,14.50
2022-09-05T04:35:55.457Z,14.40
2022-09-05T04:39:37.687Z,14.40
2022-09-05T04:43:32.447Z,14.30
2022-09-05T04:47:38.289Z,14.20
2022-09-05T04:52:01.106Z,14.20
2022-09-05T04:55:51.181Z,14.10
2022-09-05T05:03:20.014Z,14.10
2022-09-05T05:06:10.494Z,14.00
2022-09-05T05:08:13.227Z,14.00
2022-09-05T05:16:38.334Z,13.90
2022-09-05T05:18:10.551Z,13.90
2022-09-05T05:20:42.937Z,13.80
2022-09-05T05:24:35.396Z,13.80
2022-09-05T05:28:44.574Z,13.80
2022-09-05T05:32:46.140Z,13.70
2022-09-05T05:36:33.962Z,13.70
2022-09-05T05:40:15.754Z,13.60
2022-09-05T05:43:59.201Z,13.70
2022-09-05T05:47:52.020Z,13.70
2022-09-05T05:52:02.677Z,13.70
2022-09-05T05:56:26.310Z,13.70
2022-09-05T06:00:38.551Z,13.70
2022-09-05T06:05:01.913Z,13.80
2022-09-05T06:12:09.676Z,13.80
2022-09-05T06:14:57.620Z,13.80
2022-09-05T06:18:08.106Z,13.80
2022-09-05T06:22:10.593Z,13.90
2022-09-05T06:26:49.076Z,14.00
2022-09-05T06:31:30.207Z,14.20
2022-09-05T06:35:49.408Z,14.40
2022-09-05T06:40:20.115Z,14.80
2022-09-05T06:44:50.095Z,15.20
2022-09-05T06:49:29.762Z,15.70
2022-09-05T06:53:49.615Z,16.10
2022-09-05T06:58:21.425Z,16.60
2022-09-05T07:02:59.792Z,17.00
2022-09-05T07:07:21.336Z,17.60
2022-09-05T07:15:21.917Z,19.00
2022-09-05T07:19:45.800Z,19.60
2022-09-05T07:24:17.768Z,20.40
2022-09-05T07:28:30.110Z,21.30
2022-09-05T07:32:23.794Z,22.10
2022-09-05T07:36:48.590Z,22.40
2022-09-05T07:40:58.219Z,22.80
2022-09-05T07:44:48.247Z,23.00
2022-09-05T07:49:04.491Z,23.10
2022-09-05T07:56:53.302Z,23.20
2022-09-05T07:57:31.446Z,23.30
2022-09-05T08:01:22.876Z,23.20
2022-09-05T08:05:05.958Z,23.60
2022-09-05T08:10:08.677Z,24.40
2022-09-05T08:13:53.947Z,25.40
2022-09-05T08:18:22.314Z,26.20
2022-09-05T08:22:06.817Z,26.70
2022-09-05T08:26:13.847Z,27.20
2022-09-05T08:30:43.321Z,27.70
2022-09-05T08:35:13.411Z,28.70
2022-09-05T08:38:59.805Z,29.20
2022-09-05T08:46:36.616Z,29.70
2022-09-05T08:47:18.501Z,30.50
2022-09-05T08:52:07.070Z,30.50
2022-09-05T08:56:37.588Z,30.00
2022-09-05T09:00:24.468Z,29.10
2022-09-05T09:05:19.249Z,28.00
2022-09-05T09:09:23.274Z,27.10
2022-09-05T09:13:18.776Z,26.30
2022-09-05T09:18:06.430Z,26.20
2022-09-05T09:22:16.183Z,26.40
2022-09-05T09:26:16.092Z,26.80
2022-09-05T09:30:07.544Z,27.30
2022-09-05T09:38:43.019Z,28.10
2022-09-05T09:42:58.055Z,28.90
2022-09-05T09:47:00.827Z,29.50
2022-09-05T09:51:04.923Z,29.40
2022-09-05T09:55:30.428Z,29.30
2022-09-05T09:59:23.513Z,28.80
2022-09-05T10:10:35.948Z,28.20
2022-09-05T10:10:43.464Z,27.50
2022-09-05T10:17:23.899Z,26.20
2022-09-05T10:26:49.804Z,25.20
2022-09-05T10:32:13.674Z,24.90
2022-09-05T10:35:44.971Z,24.70
2022-09-05T12:01:41.227Z,20.90
2022-09-05T12:10:47.310Z,20.40
2022-09-05T12:14:49.307Z,20.20
2022-09-05T13:04:26.594Z,19.80
2022-09-05T13:08:35.839Z,20.20
2022-09-05T13:16:33.017Z,21.00
2022-09-05T13:20:58.037Z,21.40
2022-09-05T14:27:38.820Z,23.70
2022-09-05T14:37:53.460Z,23.30
2022-09-05T14:39:58.332Z,23.20
2022-09-05T15:02:57.667Z,23.50
2022-09-05T15:07:07.820Z,23.50
2022-09-05T16:08:06.834Z,22.10
2022-09-05T16:10:42.877Z,22.20
2022-09-05T16:13:38.473Z,22.20
2022-09-05T16:23:32.022Z,22.20
2022-09-05T16:26:54.264Z,22.10
2022-09-05T16:31:21.553Z,22.10
2022-09-05T16:35:53.710Z,22.00
2022-09-05T16:40:25.249Z,21.90
2022-09-05T17:15:22.782Z,21.30
2022-09-05T17:20:03.234Z,21.30
2022-09-05T17:29:18.003Z,21.20
2022-09-05T17:33:44.922Z,21.10
2022-09-05T17:37:53.459Z,21.10
2022-09-05T17:42:19.739Z,21.00
2022-09-05T17:46:50.784Z,21.00
2022-09-05T17:51:21.718Z,20.90
2022-09-05T17:55:52.185Z,20.80
2022-09-05T18:13:31.635Z,20.50
2022-09-05T18:17:41.540Z,20.20
2022-09-05T18:21:42.256Z,19.70
2022-09-05T18:25:35.759Z,19.30
2022-09-05T18:29:58.389Z,19.10
2022-09-05T18:33:56.325Z,18.90
2022-09-05T18:37:39.185Z,18.80
2022-09-05T18:41:24.961Z,18.70
2022-09-05T18:45:16.691Z,18.60
2022-09-05T18:50:21.699Z,18.50
2022-09-05T18:53:30.886Z,18.40
2022-09-05T18:57:28.271Z,18.40
2022-09-05T19:01:52.071Z,18.40
2022-09-05T19:05:46.495Z,18.30
2022-09-05T19:09:31.616Z,18.20
2022-09-05T19:13:28.724Z,18.20
2022-09-05T19:17:32.821Z,18.20
2022-09-05T19:21:19.327Z,18.10
2022-09-05T19:25:15.595Z,18.00
2022-09-05T19:36:57.501Z,17.90
2022-09-05T19:37:05.768Z,17.80
2022-09-05T19:37:30.484Z,17.70
2022-09-05T19:47:26.883Z,17.70
2022-09-05T19:47:38.546Z,17.70
2022-09-05T19:49:30.762Z,17.70
2022-09-05T19:53:17.672Z,17.60
2022-09-05T19:57:13.525Z,17.50
2022-09-05T20:01:08.471Z,17.30
2022-09-05T20:04:59.530Z,17.20
2022-09-05T20:08:41.697Z,17.10
2022-09-05T20:12:40.062Z,17.00
2022-09-05T20:16:30.631Z,16.90
2022-09-05T20:20:16.389Z,16.80
2022-09-05T20:23:59.949Z,16.70
2022-09-05T20:27:42.777Z,16.70
2022-09-05T20:31:33.110Z,16.70
2022-09-05T20:38:00.626Z,16.70
2022-09-05T20:43:21.190Z,16.80
2022-09-05T20:44:11.754Z,16.70
2022-09-05T20:54:05.271Z,16.60
2022-09-05T20:54:12.673Z,16.50
2022-09-05T20:56:09.855Z,16.40
2022-09-05T20:59:52.232Z,16.30
2022-09-05T21:03:41.560Z,16.20
2022-09-05T21:07:35.815Z,16.20
2022-09-05T21:11:28.207Z,16.10
2022-09-05T21:15:26.988Z,16.00
2022-09-05T21:19:32.966Z,15.90
2022-09-05T21:23:38.386Z,15.90
2022-09-05T21:27:25.304Z,15.80
2022-09-05T21:31:13.634Z,15.70
2022-09-05T21:34:59.115Z,15.60
2022-09-05T21:38:42.244Z,15.60
2022-09-05T21:46:07.308Z,15.50
2022-09-05T21:47:47.283Z,15.50
2022-09-05T21:50:40.838Z,15.40
2022-09-05T21:59:13.547Z,15.40
2022-09-05T21:59:22.615Z,15.30
2022-09-05T22:02:34.674Z,15.30
2022-09-05T22:06:18.261Z,15.20
2022-09-05T22:10:03.297Z,15.20
2022-09-05T22:13:46.695Z,15.10
2022-09-05T22:17:28.913Z,15.10
2022-09-05T22:21:34.131Z,15.10
2022-09-05T22:25:27.739Z,15.00
2022-09-05T22:29:11.579Z,15.00
2022-09-05T22:32:53.516Z,14.90
2022-09-05T22:36:35.407Z,14.90
2022-09-05T22:40:17.930Z,14.90
2022-09-05T22:43:59.876Z,14.80
2022-09-05T22:47:41.936Z,14.80
2022-09-05T22:51:23.856Z,14.70
2022-09-05T22:55:06.228Z,14.70
2022-09-05T22:58:48.181Z,14.70
2022-09-05T23:02:30.094Z,14.60
2022-09-05T23:06:12.902Z,14.60
2022-09-05T23:09:54.760Z,14.50
2022-09-05T23:13:36.754Z,14.50
2022-09-05T23:17:18.814Z,14.50
2022-09-05T23:21:09.439Z,14.50
2022-09-05T23:24:51.410Z,14.50
2022-09-05T23:28:33.632Z,14.50
2022-09-05T23:32:15.619Z,14.50
2022-09-05T23:36:07.999Z,14.60
2022-09-05T23:39:49.913Z,14.60
2022-09-05T23:43:32.608Z,14.70
2022-09-05T23:47:14.528Z,14.60
2022-09-05T23:50:57.111Z,14.60
2022-09-05T23:54:39.034Z,14.60
2022-09-05T23:58:21.126Z,14.70
